createdAt,value
2019-02-16T00:00:06.771Z,61.06
2019-02-16T00:02:38.322Z,60.88
2019-02-16T00:05:08.658Z,61.04
2019-02-16T00:07:38.771Z,61.43
2019-02-16T00:10:10.691Z,61.48
2019-02-16T00:12:40.669Z,61.05
2019-02-16T00:15:10.612Z,60.99
2019-02-16T00:17:40.888Z,61.12
2019-02-16T00:20:10.849Z,60.81
2019-02-16T00:22:41.129Z,60.93
2019-02-16T00:25:12.372Z,60.56
2019-02-16T00:27:42.321Z,60.29
2019-02-16T00:30:13.339Z,60.47
2019-02-16T00:32:44.416Z,60.64
2019-02-16T00:35:16.675Z,60.38
2019-02-16T00:37:46.625Z,60.79
2019-02-16T00:40:16.685Z,60.76
2019-02-16T00:42:46.653Z,60.58
2019-02-16T00:45:16.556Z,60.73
2019-02-16T00:47:51.817Z,60.74
2019-02-16T00:50:22.116Z,60.45
2019-02-16T00:52:52.384Z,60.86
2019-02-16T00:55:22.337Z,60.72
2019-02-16T00:57:54.717Z,60.73
2019-02-16T01:00:24.628Z,60.63
2019-02-16T01:02:54.505Z,60.70
2019-02-16T01:05:24.486Z,60.61
2019-02-16T01:08:01.642Z,60.47
2019-02-16T01:10:26.477Z,60.45
2019-02-16T01:12:56.425Z,60.51
2019-02-16T01:15:26.374Z,60.78
2019-02-16T01:17:56.326Z,60.68
2019-02-16T01:20:26.199Z,60.85
2019-02-16T01:22:56.079Z,60.96
2019-02-16T01:25:26.305Z,60.85
2019-02-16T01:27:56.578Z,61.34
2019-02-16T01:30:26.513Z,61.51
2019-02-16T01:32:56.318Z,61.83
2019-02-16T01:35:26.309Z,62.05
2019-02-16T01:37:56.275Z,62.07
2019-02-16T01:40:26.292Z,62.55
2019-02-16T01:42:56.490Z,62.88
2019-02-16T01:45:26.791Z,62.89
2019-02-16T01:47:56.751Z,62.75
2019-02-16T01:50:26.721Z,62.81
2019-02-16T01:52:56.895Z,62.94
2019-02-16T01:55:26.857Z,62.74
2019-02-16T01:57:56.802Z,63.38
2019-02-16T02:00:26.761Z,63.26
2019-02-16T02:02:57.100Z,63.46
2019-02-16T02:05:27.173Z,63.35
2019-02-16T02:07:57.056Z,63.36
2019-02-16T02:10:27.122Z,63.14
2019-02-16T02:13:00.810Z,63.13
2019-02-16T02:15:31.316Z,63.54
2019-02-16T02:18:02.682Z,63.64
2019-02-16T02:20:32.904Z,63.77
2019-02-16T02:23:02.869Z,63.89
2019-02-16T02:25:32.814Z,64.44
2019-02-16T02:28:02.780Z,64.81
2019-02-16T02:30:34.547Z,64.93
2019-02-16T02:33:08.654Z,65.11
2019-02-16T02:35:38.614Z,65.29
2019-02-16T02:38:08.503Z,65.44
2019-02-16T02:40:38.322Z,65.82
2019-02-16T02:43:08.271Z,66.01
2019-02-16T02:45:38.480Z,66.00
2019-02-16T02:48:09.127Z,66.02
2019-02-16T02:50:44.505Z,66.02
2019-02-16T02:53:15.505Z,66.43
2019-02-16T02:55:45.429Z,66.08
2019-02-16T02:58:15.292Z,66.30
2019-02-16T03:00:45.241Z,66.19
2019-02-16T03:03:15.107Z,66.35
2019-02-16T03:05:44.992Z,66.46
2019-02-16T03:08:18.032Z,66.65
2019-02-16T03:10:48.203Z,67.01
2019-02-16T03:13:18.241Z,66.90
2019-02-16T03:15:48.186Z,66.96
2019-02-16T03:18:18.054Z,67.07
2019-02-16T03:20:48.135Z,67.02
2019-02-16T03:23:21.050Z,66.97
2019-02-16T03:26:01.221Z,66.84
2019-02-16T03:28:44.245Z,66.63
2019-02-16T03:31:57.488Z,67.02
2019-02-16T03:34:35.175Z,66.94
2019-02-16T03:37:43.570Z,66.94
2019-02-16T03:40:13.479Z,67.10
2019-02-16T03:42:43.430Z,66.98
2019-02-16T03:45:13.372Z,67.01
2019-02-16T03:47:47.012Z,67.27
2019-02-16T03:50:15.685Z,67.14
2019-02-16T03:52:49.932Z,67.19
2019-02-16T03:55:19.876Z,67.13
2019-02-16T03:57:49.852Z,67.40
2019-02-16T04:00:19.715Z,67.51
2019-02-16T04:02:49.613Z,67.56
2019-02-16T04:05:21.451Z,67.67
2019-02-16T04:07:51.596Z,67.42
2019-02-16T04:10:21.532Z,67.50
2019-02-16T04:12:51.517Z,68.01
2019-02-16T04:15:21.800Z,67.90
2019-02-16T04:17:52.019Z,67.85
2019-02-16T04:20:26.096Z,67.54
2019-02-16T04:22:57.889Z,67.54
2019-02-16T04:25:28.219Z,67.35
2019-02-16T04:27:58.097Z,67.03
2019-02-16T04:30:29.431Z,66.68
2019-02-16T04:32:59.473Z,66.73
2019-02-16T04:35:29.333Z,66.68
2019-02-16T04:37:59.633Z,66.51
2019-02-16T04:40:29.510Z,66.63
2019-02-16T04:43:01.485Z,66.65
2019-02-16T04:45:31.431Z,66.55
2019-02-16T04:48:01.624Z,66.52
2019-02-16T04:50:31.503Z,66.64
2019-02-16T04:53:01.370Z,67.07
2019-02-16T04:55:31.340Z,67.14
2019-02-16T04:58:01.121Z,67.32
2019-02-16T05:00:31.261Z,67.77
2019-02-16T05:03:01.123Z,67.69
2019-02-16T05:05:31.010Z,67.88
2019-02-16T05:08:01.245Z,68.19
2019-02-16T05:10:31.538Z,68.38
2019-02-16T05:13:01.480Z,68.31
2019-02-16T05:15:31.728Z,68.07
2019-02-16T05:18:01.585Z,68.23
2019-02-16T05:20:31.464Z,68.27
2019-02-16T05:23:04.715Z,68.28
2019-02-16T05:25:36.526Z,68.31
2019-02-16T05:28:07.542Z,68.54
2019-02-16T05:30:39.217Z,68.58
2019-02-16T05:33:09.946Z,68.42
2019-02-16T05:35:40.295Z,68.42
2019-02-16T05:38:18.355Z,68.50
2019-02-16T05:40:51.293Z,68.78
2019-02-16T05:43:22.396Z,68.99
2019-02-16T05:45:56.214Z,69.24
2019-02-16T05:48:30.108Z,69.20
2019-02-16T05:51:04.315Z,69.37
2019-02-16T05:53:35.056Z,69.30
2019-02-16T05:56:08.302Z,69.28
2019-02-16T05:58:40.254Z,69.17
2019-02-16T06:01:10.221Z,69.38
2019-02-16T06:04:01.459Z,69.48
2019-02-16T06:06:34.436Z,69.43
2019-02-16T06:09:10.298Z,69.59
2019-02-16T06:11:43.863Z,69.55
2019-02-16T06:14:22.571Z,69.43
2019-02-16T06:16:57.129Z,69.44
2019-02-16T06:19:30.612Z,69.46
2019-02-16T06:22:00.774Z,69.54
2019-02-16T06:24:32.164Z,69.66
2019-02-16T06:27:03.129Z,69.17
2019-02-16T06:29:32.994Z,69.04
2019-02-16T06:32:04.601Z,68.92
2019-02-16T06:34:36.176Z,69.13
2019-02-16T06:37:22.609Z,69.44
2019-02-16T06:39:52.770Z,69.48
2019-02-16T06:42:22.722Z,69.50
2019-02-16T06:44:52.646Z,69.46
2019-02-16T06:47:22.544Z,69.65
2019-02-16T06:49:52.761Z,69.32
2019-02-16T06:52:22.651Z,68.85
2019-02-16T06:54:52.778Z,68.76
2019-02-16T06:57:25.676Z,69.26
2019-02-16T06:59:55.549Z,69.44
2019-02-16T07:02:27.482Z,69.19
2019-02-16T07:04:59.053Z,69.23
2019-02-16T07:07:33.599Z,69.26
2019-02-16T07:10:03.633Z,69.33
2019-02-16T07:12:33.536Z,69.37
2019-02-16T07:15:05.643Z,69.51
2019-02-16T07:18:09.707Z,69.37
2019-02-16T07:20:39.684Z,69.49
2019-02-16T07:23:09.569Z,69.21
2019-02-16T07:25:39.446Z,69.46
2019-02-16T07:28:15.646Z,69.62
2019-02-16T07:30:45.821Z,69.19
2019-02-16T07:33:17.430Z,68.64
2019-02-16T07:35:47.496Z,68.25
2019-02-16T07:38:17.460Z,68.09
2019-02-16T07:40:48.558Z,68.00
2019-02-16T07:43:37.504Z,68.07
2019-02-16T07:46:13.130Z,67.98
2019-02-16T07:48:51.979Z,68.13
2019-02-16T07:51:40.830Z,68.31
2019-02-16T07:54:31.357Z,67.97
2019-02-16T07:57:09.129Z,67.64
2019-02-16T07:59:44.039Z,67.51
2019-02-16T08:02:24.690Z,67.58
2019-02-16T08:05:22.781Z,67.61
2019-02-16T08:08:11.592Z,67.73
2019-02-16T08:10:48.302Z,67.68
2019-02-16T08:13:31.227Z,68.05
2019-02-16T08:16:21.672Z,67.67
2019-02-16T08:19:09.690Z,67.37
2019-02-16T08:22:01.700Z,67.20
2019-02-16T08:24:48.295Z,67.42
2019-02-16T08:27:42.693Z,67.71
2019-02-16T08:30:43.744Z,67.16
2019-02-16T08:33:32.660Z,67.30
2019-02-16T08:36:27.974Z,67.07
2019-02-16T08:39:17.200Z,67.13
2019-02-16T08:42:09.004Z,66.68
2019-02-16T08:45:08.324Z,66.10
2019-02-16T08:47:45.281Z,65.93
2019-02-16T08:50:49.742Z,65.63
2019-02-16T08:53:35.373Z,65.80
2019-02-16T08:56:41.016Z,66.51
2019-02-16T08:59:33.011Z,66.26
2019-02-16T09:02:27.733Z,66.23
2019-02-16T09:05:09.689Z,66.06
2019-02-16T09:08:08.149Z,65.65
2019-02-16T09:11:02.669Z,65.24
2019-02-16T09:13:51.805Z,65.49
2019-02-16T09:16:36.210Z,64.67
2019-02-16T09:19:17.426Z,64.12
2019-02-16T09:21:57.687Z,63.97
2019-02-16T09:24:52.276Z,64.36
2019-02-16T09:27:38.586Z,64.09
2019-02-16T09:30:35.774Z,63.34
2019-02-16T09:33:15.618Z,63.06
2019-02-16T09:36:03.784Z,62.82
2019-02-16T09:38:52.480Z,62.62
2019-02-16T09:41:44.104Z,62.18
2019-02-16T09:44:56.099Z,61.72
2019-02-16T09:47:44.818Z,61.31
2019-02-16T09:50:20.702Z,61.21
2019-02-16T09:53:15.363Z,61.40
2019-02-16T09:56:10.656Z,61.27
2019-02-16T09:58:47.085Z,61.82
2019-02-16T10:01:41.160Z,61.09
2019-02-16T10:04:36.046Z,60.79
2019-02-16T10:07:33.832Z,61.00
2019-02-16T10:10:26.305Z,60.56
2019-02-16T10:13:11.961Z,59.47
2019-02-16T10:16:04.605Z,59.20
2019-02-16T10:18:56.644Z,58.59
2019-02-16T10:21:51.526Z,58.09
2019-02-16T10:24:39.749Z,57.65
2019-02-16T10:27:26.001Z,56.74
2019-02-16T10:30:01.443Z,55.50
2019-02-16T10:33:05.467Z,55.98
2019-02-16T10:35:56.964Z,55.08
2019-02-16T10:38:56.623Z,54.73
2019-02-16T10:41:48.412Z,54.42
2019-02-16T10:44:31.136Z,54.20
2019-02-16T10:47:24.670Z,53.42
2019-02-16T10:50:32.057Z,52.89
2019-02-16T10:53:12.734Z,53.73
2019-02-16T10:55:53.313Z,53.08
2019-02-16T10:58:35.912Z,52.65
2019-02-16T11:01:34.180Z,51.96
2019-02-16T11:04:13.637Z,51.81
2019-02-16T11:07:04.856Z,51.45
2019-02-16T11:09:59.908Z,51.97
2019-02-16T11:12:48.100Z,51.00
2019-02-16T11:15:45.491Z,50.98
2019-02-16T11:18:33.630Z,49.17
2019-02-16T11:21:34.582Z,49.43
2019-02-16T11:24:09.878Z,48.92
2019-02-16T11:26:47.505Z,49.64
2019-02-16T11:29:31.627Z,50.46
2019-02-16T11:32:20.560Z,49.64
2019-02-16T11:35:06.672Z,48.38
2019-02-16T11:37:44.013Z,48.60
2019-02-16T11:40:36.237Z,47.97
2019-02-16T11:43:17.709Z,47.29
2019-02-16T11:46:05.197Z,47.78
2019-02-16T11:48:50.792Z,47.94
2019-02-16T11:51:37.404Z,48.41
2019-02-16T11:54:15.760Z,48.37
2019-02-16T11:57:13.280Z,48.44
2019-02-16T11:59:54.650Z,47.34
2019-02-16T12:02:49.491Z,47.55
2019-02-16T12:05:41.528Z,46.69
2019-02-16T12:08:36.633Z,47.28
2019-02-16T12:11:31.610Z,46.98
2019-02-16T12:14:23.081Z,46.46
2019-02-16T12:17:08.608Z,45.72
2019-02-16T12:20:12.997Z,45.37
2019-02-16T12:23:11.050Z,44.92
2019-02-16T12:25:56.101Z,44.71
2019-02-16T12:28:50.874Z,45.56
2019-02-16T12:31:38.717Z,44.26
2019-02-16T12:34:26.533Z,45.44
2019-02-16T12:37:15.345Z,44.90
2019-02-16T12:40:16.661Z,44.26
2019-02-16T12:43:03.783Z,44.01
2019-02-16T12:45:51.563Z,43.62
2019-02-16T12:48:32.980Z,44.00
2019-02-16T12:51:21.939Z,45.70
2019-02-16T12:54:09.612Z,44.83
2019-02-16T12:57:07.653Z,45.05
2019-02-16T12:59:56.540Z,45.34
2019-02-16T13:02:44.132Z,44.57
2019-02-16T13:05:39.200Z,44.84
2019-02-16T13:08:13.485Z,44.57
2019-02-16T13:11:08.243Z,45.69
2019-02-16T13:13:43.830Z,45.00
2019-02-16T13:16:42.058Z,45.12
2019-02-16T13:19:42.955Z,45.76
2019-02-16T13:22:25.654Z,44.81
2019-02-16T13:25:23.846Z,43.94
2019-02-16T13:28:07.887Z,43.76
2019-02-16T13:30:53.486Z,43.50
2019-02-16T13:33:33.198Z,43.08
2019-02-16T13:36:18.915Z,42.92
2019-02-16T13:39:07.806Z,42.48
2019-02-16T13:41:49.332Z,41.88
2019-02-16T13:44:33.711Z,41.56
2019-02-16T13:47:17.865Z,41.58
2019-02-16T13:50:01.595Z,42.28
2019-02-16T13:52:56.917Z,41.53
2019-02-16T13:55:52.541Z,41.62
2019-02-16T13:58:44.596Z,41.28
2019-02-16T14:01:21.623Z,41.56
2019-02-16T14:04:07.322Z,41.84
2019-02-16T14:06:56.290Z,41.09
2019-02-16T14:09:44.415Z,40.00
2019-02-16T14:12:22.238Z,41.17
2019-02-16T14:15:00.668Z,40.92
2019-02-16T14:17:48.035Z,39.67
2019-02-16T14:20:18.008Z,39.08
2019-02-16T14:22:48.318Z,38.27
2019-02-16T14:25:30.639Z,39.17
2019-02-16T14:28:00.454Z,38.37
2019-02-16T14:30:30.378Z,36.93
2019-02-16T14:33:00.349Z,36.91
2019-02-16T14:35:30.297Z,37.04
2019-02-16T14:38:19.750Z,36.59
2019-02-16T14:40:49.735Z,36.57
2019-02-16T14:43:19.727Z,37.40
2019-02-16T14:45:49.617Z,36.85
2019-02-16T14:48:19.601Z,37.00
2019-02-16T14:50:49.597Z,37.66
2019-02-16T14:53:19.854Z,37.07
2019-02-16T14:55:53.707Z,37.84
2019-02-16T14:58:21.905Z,38.06
2019-02-16T15:00:51.921Z,37.60
2019-02-16T15:03:21.909Z,38.95
2019-02-16T15:05:51.796Z,38.49
2019-02-16T15:08:21.929Z,37.45
2019-02-16T15:10:52.216Z,39.12
2019-02-16T15:13:22.312Z,39.60
2019-02-16T15:15:52.561Z,38.90
2019-02-16T15:18:22.537Z,39.47
2019-02-16T15:20:53.941Z,39.47
2019-02-16T15:23:24.146Z,39.39
2019-02-16T15:26:00.700Z,41.00
2019-02-16T15:28:25.766Z,41.34
2019-02-16T15:30:55.727Z,42.21
2019-02-16T15:33:25.701Z,44.41
2019-02-16T15:35:55.766Z,44.17
2019-02-16T15:38:25.697Z,43.67
2019-02-16T15:40:55.573Z,45.08
2019-02-16T15:43:25.555Z,47.26
2019-02-16T15:45:55.449Z,46.01
2019-02-16T15:48:25.575Z,46.09
2019-02-16T15:50:55.536Z,48.43
2019-02-16T15:53:25.534Z,49.54
2019-02-16T15:55:55.516Z,50.22
2019-02-16T15:58:25.776Z,51.17
2019-02-16T16:00:55.673Z,52.43
2019-02-16T16:03:25.632Z,53.13
2019-02-16T16:05:55.662Z,54.84
2019-02-16T16:08:50.713Z,53.90
2019-02-16T16:11:26.377Z,55.31
2019-02-16T16:14:27.313Z,56.43
2019-02-16T16:17:19.021Z,56.63
2019-02-16T16:20:00.322Z,56.19
2019-02-16T16:22:40.486Z,56.14
2019-02-16T16:25:32.962Z,55.82
2019-02-16T16:28:33.787Z,56.20
2019-02-16T16:31:21.381Z,57.56
2019-02-16T16:34:04.656Z,57.49
2019-02-16T16:37:08.983Z,57.02
2019-02-16T16:39:50.163Z,57.89
2019-02-16T16:42:41.988Z,57.76
2019-02-16T16:45:30.939Z,59.02
2019-02-16T16:48:20.212Z,59.45
2019-02-16T16:50:59.001Z,59.42
2019-02-16T16:53:35.357Z,58.84
2019-02-16T16:56:29.121Z,60.04
2019-02-16T16:59:15.634Z,61.11
2019-02-16T17:02:11.219Z,61.55
2019-02-16T17:05:03.773Z,60.75
2019-02-16T17:08:02.530Z,61.30
2019-02-16T17:11:00.604Z,61.85
2019-02-16T17:13:36.314Z,62.06
2019-02-16T17:16:17.436Z,61.83
2019-02-16T17:19:09.465Z,61.44
2019-02-16T17:21:57.209Z,61.70
2019-02-16T17:24:35.986Z,61.85
2019-02-16T17:27:34.164Z,62.31
2019-02-16T17:30:12.873Z,62.74
2019-02-16T17:33:02.263Z,63.41
2019-02-16T17:35:51.108Z,63.74
2019-02-16T17:38:52.010Z,63.25
2019-02-16T17:41:30.883Z,63.50
2019-02-16T17:44:10.113Z,64.12
2019-02-16T17:47:08.040Z,64.36
2019-02-16T17:50:08.942Z,65.14
2019-02-16T17:53:13.278Z,65.18
2019-02-16T17:56:06.965Z,65.02
2019-02-16T17:58:43.490Z,65.12
2019-02-16T18:01:34.533Z,65.21
2019-02-16T18:04:35.641Z,65.57
2019-02-16T18:07:23.612Z,65.60
2019-02-16T18:10:21.448Z,65.66
2019-02-16T18:13:09.690Z,66.19
2019-02-16T18:16:07.591Z,66.11
2019-02-16T18:18:41.983Z,66.20
2019-02-16T18:21:30.937Z,66.06
2019-02-16T18:24:16.345Z,66.17
2019-02-16T18:26:57.017Z,66.41
2019-02-16T18:29:44.749Z,67.00
2019-02-16T18:32:33.871Z,67.55
2019-02-16T18:35:24.672Z,67.26
2019-02-16T18:38:02.880Z,66.91
2019-02-16T18:40:51.945Z,67.37
2019-02-16T18:43:42.636Z,67.68
2019-02-16T18:46:35.179Z,67.93
2019-02-16T18:49:24.242Z,68.31
2019-02-16T18:52:01.097Z,68.22
2019-02-16T18:54:44.842Z,68.09
2019-02-16T18:57:21.014Z,67.75
2019-02-16T18:59:58.288Z,67.79
2019-02-16T19:02:47.371Z,67.79
2019-02-16T19:05:34.586Z,67.87
2019-02-16T19:08:17.284Z,67.99
2019-02-16T19:11:07.008Z,68.00
2019-02-16T19:14:02.102Z,67.61
2019-02-16T19:16:48.984Z,67.61
2019-02-16T19:19:37.044Z,67.33
2019-02-16T19:22:17.345Z,67.44
2019-02-16T19:25:02.763Z,67.10
2019-02-16T19:27:57.576Z,67.02
2019-02-16T19:30:37.567Z,66.83
2019-02-16T19:33:29.608Z,66.94
2019-02-16T19:36:08.647Z,67.19
2019-02-16T19:38:54.299Z,67.58
2019-02-16T19:41:49.378Z,67.91
2019-02-16T19:44:33.558Z,68.13
2019-02-16T19:47:27.987Z,68.09
2019-02-16T19:50:21.418Z,67.84
2019-02-16T19:53:02.700Z,68.04
2019-02-16T19:56:02.919Z,68.27
2019-02-16T19:59:01.339Z,68.22
2019-02-16T20:01:52.817Z,68.39
2019-02-16T20:04:53.790Z,68.54
2019-02-16T20:07:52.132Z,68.41
2019-02-16T20:10:38.241Z,68.41
2019-02-16T20:13:30.167Z,68.13
2019-02-16T20:16:12.988Z,68.14
2019-02-16T20:19:01.127Z,68.03
2019-02-16T20:22:02.726Z,68.35
2019-02-16T20:24:43.692Z,68.68
2019-02-16T20:27:37.415Z,68.83
2019-02-16T20:30:21.886Z,68.87
2019-02-16T20:33:03.690Z,68.88
2019-02-16T20:36:01.880Z,68.79
2019-02-16T20:38:38.946Z,68.72
2019-02-16T20:41:28.311Z,68.71
2019-02-16T20:44:14.311Z,68.70
2019-02-16T20:47:21.584Z,68.63
2019-02-16T20:50:13.405Z,68.88
2019-02-16T20:53:14.619Z,68.97
2019-02-16T20:56:05.577Z,69.02
2019-02-16T20:59:06.337Z,68.98
2019-02-16T21:01:52.115Z,69.33
2019-02-16T21:04:59.161Z,69.35
2019-02-16T21:07:50.615Z,69.00
2019-02-16T21:10:35.889Z,69.01
2019-02-16T21:13:11.926Z,69.58
2019-02-16T21:15:54.963Z,69.52
2019-02-16T21:18:32.852Z,69.61
2019-02-16T21:21:30.803Z,69.55
2019-02-16T21:24:13.456Z,69.75
2019-02-16T21:26:53.198Z,69.96
2019-02-16T21:29:34.468Z,69.88
2019-02-16T21:32:22.573Z,69.68
2019-02-16T21:34:57.654Z,69.72
2019-02-16T21:37:46.442Z,70.06
2019-02-16T21:40:40.482Z,70.21
2019-02-16T21:43:27.197Z,70.03
2019-02-16T21:46:15.493Z,69.60
2019-02-16T21:48:55.170Z,69.60
2019-02-16T21:51:43.354Z,69.67
2019-02-16T21:54:22.592Z,69.77
2019-02-16T21:57:07.352Z,69.76
2019-02-16T21:59:50.434Z,69.71
2019-02-16T22:02:36.338Z,70.02
2019-02-16T22:05:22.052Z,70.18
2019-02-16T22:08:09.947Z,70.26
2019-02-16T22:10:54.442Z,70.47
2019-02-16T22:13:24.620Z,70.49
2019-02-16T22:15:54.598Z,70.39
2019-02-16T22:18:24.613Z,70.58
2019-02-16T22:20:54.578Z,70.36
2019-02-16T22:23:24.903Z,70.53
2019-02-16T22:25:54.776Z,70.62
2019-02-16T22:28:30.867Z,70.41
2019-02-16T22:30:56.380Z,70.68
2019-02-16T22:33:26.264Z,70.59
2019-02-16T22:35:56.528Z,70.72
2019-02-16T22:38:26.522Z,71.12
2019-02-16T22:40:56.396Z,71.15
2019-02-16T22:43:26.588Z,71.16
2019-02-16T22:45:56.825Z,71.37
2019-02-16T22:48:26.796Z,71.46
2019-02-16T22:50:56.962Z,71.26
2019-02-16T22:53:26.930Z,71.45
2019-02-16T22:55:56.829Z,71.40
2019-02-16T22:58:29.187Z,71.37
2019-02-16T23:00:58.878Z,71.50
2019-02-16T23:03:30.441Z,71.23
2019-02-16T23:06:00.378Z,71.39
2019-02-16T23:08:30.331Z,71.62
2019-02-16T23:11:00.310Z,71.60
2019-02-16T23:13:30.329Z,71.31
2019-02-16T23:16:01.350Z,71.22
2019-02-16T23:18:31.375Z,71.45
2019-02-16T23:21:01.317Z,71.07
2019-02-16T23:23:31.287Z,70.74
2019-02-16T23:26:01.549Z,70.94
2019-02-16T23:28:38.667Z,71.22
2019-02-16T23:31:03.303Z,71.28
2019-02-16T23:33:33.274Z,71.12
2019-02-16T23:36:03.607Z,71.24
2019-02-16T23:38:33.823Z,71.11
2019-02-16T23:41:06.218Z,71.47
2019-02-16T23:43:35.447Z,71.71
2019-02-16T23:46:05.391Z,71.80
2019-02-16T23:48:35.375Z,71.59
2019-02-16T23:51:05.400Z,71.68
2019-02-16T23:53:35.275Z,71.78
2019-02-16T23:56:05.223Z,71.71
2019-02-16T23:58:35.168Z,72.04
